Aérodrome :
LOGIN :

S'inscrire | Disclaimer

   EN    FR    IT 

 










Légende :    VFR   VFR Marginal   IFR   IFR Intensif   IFR Très Intensif
Visi : 
Plafond : 
>= 8 km
>= 3000ft
5 à 8 km
1000 à 3000 ft
1500m à 5 km
500 à 1000 ft
800 à 1500m
200 à 500 ft
< 800m
< 200 ft
Symboles :   Orages  Brouillard  Fortes neiges  Fortes précipitations  Vent > 20 kt
SIGMETs :   Divers  Orages  Givrage  Turbulence  Onde Orograph.  Cendres Volcan.






- Altitude de l'aérodrome : 162 ft
- Code IATA : BOD


LFBD - Bordeaux / Merignac

DERNIER METAR :
  • 101900Z AUTO 28005KT CAVOK 16/09 Q1009 NOSIG

METARs EXPIRÉS :
  • 101830Z AUTO 29007KT 9999 ///CB 17/09 Q1009 BECMG BKN030
  • 101800Z AUTO 27008KT CAVOK 18/09 Q1009 NOSIG
  • 101730Z AUTO 26007KT 230V310 CAVOK 19/09 Q1009 NOSIG
  • 101700Z AUTO 28007KT 230V330 CAVOK 19/09 Q1009 NOSIG
  • 101630Z AUTO 26006KT 230V300 CAVOK 19/09 Q1009 NOSIG

TAF TAF LFBD
Valide du 10 à 18h jusqu'au 12 à 00h UTC


101700Z 1018/1124 27010KT 9999 BKN030 TX18/1018Z TN05/1200Z
TEMPO 1021/1024 4000 -SHRA BKN030TCU
PROB30
TEMPO 1021/1024 2500 TSRA BKN008 BKN015CB
BECMG 1100/1102 -RA BKN020
TEMPO 1102/1110 4000 RA BKN010
PROB40
TEMPO 1107/1110 2000 RA BKN005 BKN012CB
BECMG 1110/1112 NSW BKN020
BECMG 1112/1114 36010KT
BECMG 1118/1120 30010KT CAVOK
ATIS : +33 5 57 92 81 04



MET'MAP, la Météo Aéronautique d'un coup d'oeil ! - Copyright ORBIFLY Décembre 2007 - Disclaimer

ORBIFLY MET'MAP TEAM :

Programmation & Développement : Alexandra Zaïnal
Sur une idée originale de : Baudouin d'Aumeries
Assistance à la programmation : Marc-Olivier Méhu
Soutien technique & logistique : Manuel Goepfert

Contact : metmap@orbifly.com




SOURCES & CREDITS :

   NOAA